createdAt,value
2023-05-08T00:00:43.260Z,12.04
2023-05-08T00:01:44.772Z,12.01
2023-05-08T00:02:46.588Z,12.03
2023-05-08T00:03:48.291Z,12.03
2023-05-08T00:04:50.162Z,12.02
2023-05-08T00:05:51.940Z,12.04
2023-05-08T00:06:53.492Z,12.03
2023-05-08T00:08:01.165Z,12.03
2023-05-08T00:09:02.775Z,12.02
2023-05-08T00:10:05.848Z,12.03
2023-05-08T00:11:07.337Z,12.03
2023-05-08T00:12:08.873Z,12.02
2023-05-08T00:13:12.493Z,11.97
2023-05-08T00:14:14.243Z,11.98
2023-05-08T00:15:15.854Z,11.95
2023-05-08T00:16:17.858Z,11.89
2023-05-08T00:17:19.450Z,11.90
2023-05-08T00:18:21.689Z,11.92
2023-05-08T00:19:23.261Z,11.91
2023-05-08T00:20:24.784Z,11.90
2023-05-08T00:21:26.951Z,11.88
2023-05-08T00:22:28.510Z,11.88
2023-05-08T00:23:30.016Z,11.89
2023-05-08T00:24:31.573Z,11.89
2023-05-08T00:25:33.410Z,11.88
2023-05-08T00:26:34.921Z,11.86
2023-05-08T00:27:36.626Z,11.84
2023-05-08T00:28:38.133Z,11.82
2023-05-08T00:29:43.207Z,11.77
2023-05-08T00:30:44.885Z,11.74
2023-05-08T00:31:46.770Z,11.78
2023-05-08T00:32:48.318Z,11.75
2023-05-08T00:33:49.777Z,11.79
2023-05-08T00:34:51.362Z,11.79
2023-05-08T00:36:01.785Z,11.77
2023-05-08T00:37:03.685Z,11.79
2023-05-08T00:38:05.185Z,11.80
2023-05-08T00:39:06.856Z,11.79
2023-05-08T00:40:10.728Z,11.82
2023-05-08T00:41:12.418Z,11.77
2023-05-08T00:42:13.870Z,11.80
2023-05-08T00:43:15.320Z,11.77
2023-05-08T00:44:17.602Z,11.79
2023-05-08T00:45:19.221Z,11.77
2023-05-08T00:46:21.003Z,11.80
2023-05-08T00:47:23.387Z,11.80
2023-05-08T00:48:27.505Z,11.81
2023-05-08T00:49:29.134Z,11.82
2023-05-08T00:50:32.657Z,11.83
2023-05-08T00:51:34.299Z,11.86
2023-05-08T00:52:35.903Z,11.87
2023-05-08T00:53:42.932Z,11.87
2023-05-08T00:54:45.227Z,11.87
2023-05-08T00:55:48.551Z,11.87
2023-05-08T00:56:51.933Z,11.88
2023-05-08T00:57:53.530Z,11.86
2023-05-08T00:58:55.259Z,11.88
2023-05-08T00:59:57.111Z,11.85
2023-05-08T01:00:59.605Z,11.86
2023-05-08T01:02:01.986Z,11.84
2023-05-08T01:03:04.572Z,11.86
2023-05-08T01:04:07.193Z,11.86
2023-05-08T01:05:09.002Z,11.86
2023-05-08T01:06:10.638Z,11.87
2023-05-08T01:07:12.243Z,11.89
2023-05-08T01:08:13.768Z,11.88
2023-05-08T01:09:15.279Z,11.86
2023-05-08T01:10:16.933Z,11.83
2023-05-08T01:11:27.899Z,11.86
2023-05-08T01:12:59.283Z,11.89
2023-05-08T01:14:15.870Z,11.88
2023-05-08T01:15:54.071Z,11.91
2023-05-08T01:17:22.014Z,11.89
2023-05-08T01:18:34.771Z,11.88
2023-05-08T01:19:54.904Z,11.86
2023-05-08T01:21:06.768Z,11.91
2023-05-08T01:22:17.034Z,11.88
2023-05-08T01:23:34.071Z,11.92
2023-05-08T01:24:54.191Z,11.85
2023-05-08T01:26:44.033Z,11.84
2023-05-08T01:28:12.717Z,11.79
2023-05-08T01:29:40.340Z,11.79
2023-05-08T01:30:57.564Z,11.78
2023-05-08T01:32:12.407Z,11.80
2023-05-08T01:33:42.363Z,11.80
2023-05-08T01:35:07.880Z,11.83
2023-05-08T01:36:23.545Z,11.83
2023-05-08T01:37:35.540Z,11.83
2023-05-08T01:39:01.019Z,11.84
2023-05-08T01:40:11.499Z,11.85
2023-05-08T01:41:16.801Z,11.86
2023-05-08T01:42:50.683Z,11.85
2023-05-08T01:44:06.116Z,11.84
2023-05-08T01:45:32.010Z,11.84
2023-05-08T01:46:34.299Z,11.76
2023-05-08T01:47:38.253Z,11.76
2023-05-08T01:48:49.350Z,11.75
2023-05-08T01:50:05.488Z,11.74
2023-05-08T01:51:14.913Z,11.74
2023-05-08T01:52:31.769Z,11.74
2023-05-08T01:53:43.472Z,11.73
2023-05-08T01:54:54.307Z,11.74
2023-05-08T01:56:03.842Z,11.73
2023-05-08T01:57:09.665Z,11.73
2023-05-08T01:58:12.573Z,11.75
2023-05-08T01:59:19.596Z,11.77
2023-05-08T02:00:22.701Z,11.77
2023-05-08T02:01:26.005Z,11.78
2023-05-08T02:02:32.533Z,11.77
2023-05-08T02:03:35.479Z,11.74
2023-05-08T02:04:39.329Z,11.70
2023-05-08T02:05:43.897Z,11.69
2023-05-08T02:06:45.803Z,11.69
2023-05-08T02:07:49.051Z,11.67
2023-05-08T02:08:52.273Z,11.68
2023-05-08T02:09:55.804Z,11.67
2023-05-08T02:11:00.798Z,11.67
2023-05-08T02:12:03.518Z,11.67
2023-05-08T02:13:06.514Z,11.67
2023-05-08T02:14:09.688Z,11.68
2023-05-08T02:15:15.241Z,11.67
2023-05-08T02:16:18.117Z,11.67
2023-05-08T02:17:21.151Z,11.68
2023-05-08T02:18:25.579Z,11.67
2023-05-08T02:19:29.755Z,11.67
2023-05-08T02:20:32.918Z,11.66
2023-05-08T02:21:36.778Z,11.66
2023-05-08T02:22:38.448Z,11.66
2023-05-08T02:23:43.737Z,11.65
2023-05-08T02:24:45.951Z,11.63
2023-05-08T02:25:48.926Z,11.64
2023-05-08T02:26:52.612Z,11.64
2023-05-08T02:27:55.368Z,11.64
2023-05-08T02:28:58.786Z,11.63
2023-05-08T02:30:01.047Z,11.63
2023-05-08T02:31:03.169Z,11.62
2023-05-08T02:32:07.779Z,11.58
2023-05-08T02:33:12.675Z,11.52
2023-05-08T02:34:15.533Z,11.53
2023-05-08T02:35:19.818Z,11.54
2023-05-08T02:36:23.493Z,11.55
2023-05-08T02:37:26.286Z,11.57
2023-05-08T02:38:30.378Z,11.56
2023-05-08T02:39:35.160Z,11.56
2023-05-08T02:40:45.591Z,11.56
2023-05-08T02:41:47.602Z,11.55
2023-05-08T02:42:49.678Z,11.54
2023-05-08T02:43:52.699Z,11.53
2023-05-08T02:44:54.685Z,11.53
2023-05-08T02:46:11.237Z,11.53
2023-05-08T02:47:38.106Z,11.55
2023-05-08T02:48:51.038Z,11.53
2023-05-08T02:50:00.272Z,11.53
2023-05-08T02:51:18.399Z,11.55
2023-05-08T02:52:32.949Z,11.55
2023-05-08T02:54:00.666Z,11.54
2023-05-08T02:55:15.821Z,11.54
2023-05-08T02:56:38.122Z,11.53
2023-05-08T02:58:05.165Z,11.53
2023-05-08T02:59:31.360Z,11.52
2023-05-08T03:00:41.298Z,11.53
2023-05-08T03:01:52.514Z,11.51
2023-05-08T03:03:12.131Z,11.51
2023-05-08T03:04:24.682Z,11.49
2023-05-08T03:05:30.707Z,11.49
2023-05-08T03:06:41.418Z,11.49
2023-05-08T03:07:45.205Z,11.49
2023-05-08T03:08:48.540Z,11.49
2023-05-08T03:09:56.972Z,11.48
2023-05-08T03:11:02.855Z,11.50
2023-05-08T03:12:10.161Z,11.51
2023-05-08T03:13:14.984Z,11.52
2023-05-08T03:14:21.006Z,11.52
2023-05-08T03:15:37.576Z,11.50
2023-05-08T03:16:42.907Z,11.52
2023-05-08T03:17:46.969Z,11.53
2023-05-08T03:18:56.864Z,11.51
2023-05-08T03:20:02.572Z,11.52
2023-05-08T03:21:06.647Z,11.53
2023-05-08T03:22:10.323Z,11.52
2023-05-08T03:23:15.485Z,11.50
2023-05-08T03:24:19.739Z,11.49
2023-05-08T03:25:22.609Z,11.48
2023-05-08T03:26:24.623Z,11.48
2023-05-08T03:27:28.734Z,11.48
2023-05-08T03:28:31.904Z,11.48
2023-05-08T03:29:36.433Z,11.47
2023-05-08T03:30:40.119Z,11.48
2023-05-08T03:31:45.085Z,11.47
2023-05-08T03:32:47.774Z,11.47
2023-05-08T03:33:53.761Z,11.47
2023-05-08T03:34:59.183Z,11.44
2023-05-08T03:36:00.820Z,11.42
2023-05-08T03:37:02.430Z,11.40
2023-05-08T03:38:08.500Z,11.38
2023-05-08T03:39:10.107Z,11.39
2023-05-08T03:40:12.357Z,11.39
2023-05-08T03:41:14.311Z,11.39
2023-05-08T03:42:21.489Z,11.38
2023-05-08T03:43:24.801Z,11.38
2023-05-08T03:44:29.736Z,11.37
2023-05-08T03:45:38.369Z,11.38
2023-05-08T03:46:40.943Z,11.37
2023-05-08T03:47:44.453Z,11.37
2023-05-08T03:48:48.005Z,11.32
2023-05-08T03:49:50.325Z,11.34
2023-05-08T03:50:53.532Z,11.32
2023-05-08T03:51:56.679Z,11.31
2023-05-08T03:52:59.038Z,11.28
2023-05-08T03:54:00.923Z,11.22
2023-05-08T03:55:02.703Z,11.22
2023-05-08T03:56:04.982Z,11.22
2023-05-08T03:57:08.563Z,11.21
2023-05-08T03:58:31.380Z,11.22
2023-05-08T03:59:54.760Z,11.23
2023-05-08T04:01:19.688Z,11.23
2023-05-08T04:02:46.977Z,11.22
2023-05-08T04:04:07.858Z,11.24
2023-05-08T04:05:34.352Z,11.23
2023-05-08T04:07:08.465Z,11.26
2023-05-08T04:08:20.125Z,11.28
2023-05-08T04:10:04.690Z,11.29
2023-05-08T04:11:26.854Z,11.30
2023-05-08T04:12:39.666Z,11.35
2023-05-08T04:13:48.841Z,11.38
2023-05-08T04:14:56.875Z,11.40
2023-05-08T04:16:09.670Z,11.44
2023-05-08T04:17:17.678Z,11.47
2023-05-08T04:18:25.230Z,11.45
2023-05-08T04:19:29.918Z,11.47
2023-05-08T04:20:32.567Z,11.49
2023-05-08T04:21:35.610Z,11.51
2023-05-08T04:22:40.396Z,11.53
2023-05-08T04:23:44.097Z,11.54
2023-05-08T04:24:48.100Z,11.56
2023-05-08T04:25:52.341Z,11.57
2023-05-08T04:26:54.750Z,11.60
2023-05-08T04:27:57.663Z,11.62
2023-05-08T04:28:59.958Z,11.62
2023-05-08T04:30:02.449Z,11.63
2023-05-08T04:31:07.516Z,11.63
2023-05-08T04:32:10.800Z,11.68
2023-05-08T04:33:14.314Z,11.71
2023-05-08T04:34:15.924Z,11.73
2023-05-08T04:35:17.878Z,11.76
2023-05-08T04:36:20.196Z,11.74
2023-05-08T04:37:24.708Z,11.66
2023-05-08T04:38:26.272Z,11.68
2023-05-08T04:39:27.892Z,11.74
2023-05-08T04:40:29.474Z,11.78
2023-05-08T04:41:32.296Z,11.80
2023-05-08T04:42:36.546Z,11.84
2023-05-08T04:43:38.696Z,11.83
2023-05-08T04:44:41.874Z,11.89
2023-05-08T04:45:43.423Z,11.92
2023-05-08T04:46:44.898Z,11.96
2023-05-08T04:47:46.351Z,12.00
2023-05-08T04:48:47.901Z,12.03
2023-05-08T04:49:49.749Z,12.01
2023-05-08T04:50:51.304Z,12.08
2023-05-08T04:51:53.201Z,12.14
2023-05-08T04:52:54.770Z,12.19
2023-05-08T04:53:56.519Z,12.13
2023-05-08T04:54:57.964Z,12.11
2023-05-08T04:55:59.559Z,12.19
2023-05-08T04:57:02.300Z,12.23
2023-05-08T04:58:03.818Z,12.17
2023-05-08T04:59:05.601Z,12.20
2023-05-08T05:00:07.880Z,12.17
2023-05-08T05:01:13.437Z,12.19
2023-05-08T05:02:15.558Z,12.16
2023-05-08T05:03:17.405Z,12.09
2023-05-08T05:04:18.967Z,12.18
2023-05-08T05:05:20.820Z,12.17
2023-05-08T05:06:22.391Z,12.21
2023-05-08T05:07:23.953Z,12.21
2023-05-08T05:08:26.742Z,12.31
2023-05-08T05:09:29.855Z,12.29
2023-05-08T05:10:31.470Z,12.32
2023-05-08T05:11:33.137Z,12.30
2023-05-08T05:12:34.685Z,12.30
2023-05-08T05:13:37.010Z,12.20
2023-05-08T05:14:38.912Z,12.22
2023-05-08T05:15:42.867Z,12.29
2023-05-08T05:16:44.964Z,12.26
2023-05-08T05:17:46.735Z,12.32
2023-05-08T05:18:48.572Z,12.31
2023-05-08T05:19:51.526Z,12.40
2023-05-08T05:20:54.754Z,12.41
2023-05-08T05:21:56.370Z,12.41
2023-05-08T05:22:58.193Z,12.42
2023-05-08T05:24:00.273Z,12.38
2023-05-08T05:25:01.839Z,12.37
2023-05-08T05:26:03.962Z,12.42
2023-05-08T05:27:06.119Z,12.43
2023-05-08T05:28:07.728Z,12.42
2023-05-08T05:29:09.233Z,12.44
2023-05-08T05:30:12.536Z,12.41
2023-05-08T05:31:14.541Z,12.46
2023-05-08T05:32:16.942Z,12.53
2023-05-08T05:33:18.730Z,12.55
2023-05-08T05:34:20.212Z,12.52
2023-05-08T05:35:24.122Z,12.58
2023-05-08T05:36:27.024Z,12.64
2023-05-08T05:37:28.832Z,12.69
2023-05-08T05:38:30.459Z,12.74
2023-05-08T05:39:32.094Z,12.76
2023-05-08T05:40:33.634Z,12.81
2023-05-08T05:41:36.247Z,12.75
2023-05-08T05:42:38.080Z,12.81
2023-05-08T05:43:39.597Z,12.82
2023-05-08T05:44:41.141Z,12.81
2023-05-08T05:45:42.622Z,12.78
2023-05-08T05:46:44.625Z,12.71
2023-05-08T05:47:50.415Z,12.71
2023-05-08T05:48:54.204Z,12.69
2023-05-08T05:49:55.723Z,12.72
2023-05-08T05:50:57.246Z,12.74
2023-05-08T05:51:58.983Z,12.76
2023-05-08T05:53:00.906Z,12.74
2023-05-08T05:54:02.646Z,12.80
2023-05-08T05:55:04.881Z,12.84
2023-05-08T05:56:07.058Z,12.83
2023-05-08T05:57:08.762Z,12.86
2023-05-08T05:58:10.261Z,12.91
2023-05-08T05:59:11.777Z,12.92
2023-05-08T06:00:14.256Z,12.93
2023-05-08T06:01:16.156Z,12.95
2023-05-08T06:02:19.896Z,12.97
2023-05-08T06:03:22.501Z,12.96
2023-05-08T06:04:24.175Z,12.92
2023-05-08T06:05:25.849Z,12.82
2023-05-08T06:06:27.698Z,12.87
2023-05-08T06:07:29.474Z,12.88
2023-05-08T06:08:31.286Z,12.89
2023-05-08T06:09:32.788Z,12.91
2023-05-08T06:10:35.143Z,12.95
2023-05-08T06:11:36.837Z,12.95
2023-05-08T06:12:38.507Z,12.98
2023-05-08T06:13:41.337Z,13.00
2023-05-08T06:14:43.084Z,12.96
2023-05-08T06:15:44.833Z,12.95
2023-05-08T06:16:46.509Z,12.97
2023-05-08T06:17:48.056Z,12.99
2023-05-08T06:18:49.698Z,12.99
2023-05-08T06:19:55.649Z,13.01
2023-05-08T06:20:58.634Z,13.00
2023-05-08T06:22:00.152Z,12.99
2023-05-08T06:23:01.682Z,12.93
2023-05-08T06:24:03.590Z,12.94
2023-05-08T06:25:07.340Z,12.94
2023-05-08T06:26:08.910Z,12.97
2023-05-08T06:27:11.125Z,12.95
2023-05-08T06:28:12.638Z,12.99
2023-05-08T06:29:14.161Z,13.01
2023-05-08T06:30:15.625Z,13.05
2023-05-08T06:31:17.435Z,13.05
2023-05-08T06:32:22.390Z,13.08
2023-05-08T06:33:26.152Z,13.09
2023-05-08T06:34:28.398Z,13.11
2023-05-08T06:35:29.963Z,13.10
2023-05-08T06:36:31.805Z,13.11
2023-05-08T06:37:33.402Z,13.12
2023-05-08T06:38:34.960Z,13.14
2023-05-08T06:39:36.897Z,13.14
2023-05-08T06:40:42.157Z,13.08
2023-05-08T06:41:46.730Z,13.08
2023-05-08T06:42:53.177Z,13.12
2023-05-08T06:43:54.690Z,13.15
2023-05-08T06:44:56.202Z,13.14
2023-05-08T06:45:57.730Z,13.15
2023-05-08T06:46:59.393Z,13.15
2023-05-08T06:48:02.438Z,13.18
2023-05-08T06:49:03.956Z,13.18
2023-05-08T06:50:06.173Z,13.19
2023-05-08T06:51:07.640Z,13.23
2023-05-08T06:52:09.076Z,13.28
2023-05-08T06:53:10.640Z,13.30
2023-05-08T06:54:12.218Z,13.36
2023-05-08T06:55:13.938Z,13.39
2023-05-08T06:56:15.667Z,13.43
2023-05-08T06:57:17.353Z,13.48
2023-05-08T06:58:18.913Z,13.44
2023-05-08T06:59:21.366Z,13.47
2023-05-08T07:00:23.138Z,13.48
2023-05-08T07:01:24.706Z,13.50
2023-05-08T07:02:26.254Z,13.51
2023-05-08T07:03:28.229Z,13.57
2023-05-08T07:04:32.056Z,13.58
2023-05-08T07:05:33.976Z,13.63
2023-05-08T07:06:35.390Z,13.65
2023-05-08T07:07:37.012Z,13.68
2023-05-08T07:08:38.482Z,13.64
2023-05-08T07:09:40.639Z,13.65
2023-05-08T07:10:42.070Z,13.67
2023-05-08T07:11:43.640Z,13.68
2023-05-08T07:12:45.161Z,13.65
2023-05-08T07:13:48.201Z,13.72
2023-05-08T07:14:50.208Z,13.78
2023-05-08T07:15:51.838Z,13.87
2023-05-08T07:16:53.355Z,13.93
2023-05-08T07:17:54.812Z,13.97
2023-05-08T07:18:56.371Z,14.00
2023-05-08T07:19:57.842Z,14.12
2023-05-08T07:20:59.236Z,14.18
2023-05-08T07:22:00.851Z,14.18
2023-05-08T07:23:02.586Z,14.20
2023-05-08T07:24:04.303Z,14.27
2023-05-08T07:25:06.274Z,14.21
2023-05-08T07:26:08.211Z,14.18
2023-05-08T07:27:09.907Z,14.24
2023-05-08T07:28:11.705Z,14.26
2023-05-08T07:29:13.178Z,14.37
2023-05-08T07:30:15.170Z,14.46
2023-05-08T07:31:17.126Z,14.34
2023-05-08T07:32:18.618Z,14.56
2023-05-08T07:33:20.324Z,14.68
2023-05-08T07:34:22.114Z,14.78
2023-05-08T07:35:23.704Z,14.84
2023-05-08T07:36:25.232Z,14.90
2023-05-08T07:37:26.898Z,14.88
2023-05-08T07:38:28.467Z,14.98
2023-05-08T07:39:30.115Z,15.02
2023-05-08T07:40:31.722Z,14.91
2023-05-08T07:41:33.230Z,14.89
2023-05-08T07:42:40.252Z,14.96
2023-05-08T07:43:43.868Z,14.98
2023-05-08T07:44:54.263Z,15.00
2023-05-08T07:45:57.116Z,15.06
2023-05-08T07:46:58.778Z,14.91
2023-05-08T07:48:00.500Z,14.78
2023-05-08T07:49:02.001Z,14.85
2023-05-08T07:50:04.068Z,14.93
2023-05-08T07:51:05.661Z,14.95
2023-05-08T07:52:07.315Z,15.07
2023-05-08T07:53:08.859Z,15.10
2023-05-08T07:54:10.401Z,15.17
2023-05-08T07:55:12.874Z,15.17
2023-05-08T07:56:14.686Z,15.20
2023-05-08T07:57:16.292Z,15.35
2023-05-08T07:58:18.084Z,15.45
2023-05-08T07:59:19.627Z,15.54
2023-05-08T08:00:21.729Z,15.35
2023-05-08T08:01:23.507Z,15.48
2023-05-08T08:02:25.079Z,15.60
2023-05-08T08:03:26.755Z,15.78
2023-05-08T08:04:28.534Z,15.82
2023-05-08T08:05:30.192Z,15.75
2023-05-08T08:06:31.775Z,16.00
2023-05-08T08:07:33.250Z,16.07
2023-05-08T08:08:34.708Z,16.27
2023-05-08T08:09:36.248Z,16.35
2023-05-08T08:10:37.830Z,16.38
2023-05-08T08:11:39.553Z,16.45
2023-05-08T08:12:41.005Z,16.55
2023-05-08T08:13:42.503Z,16.49
2023-05-08T08:14:44.319Z,16.41
2023-05-08T08:15:45.868Z,16.00
2023-05-08T08:16:47.497Z,15.75
2023-05-08T08:17:49.073Z,15.56
2023-05-08T08:18:52.844Z,15.41
2023-05-08T08:19:54.355Z,15.20
2023-05-08T08:20:55.801Z,14.90
2023-05-08T08:21:57.396Z,14.80
2023-05-08T08:22:58.935Z,14.72
2023-05-08T08:24:00.716Z,14.44
2023-05-08T08:25:02.660Z,14.41
2023-05-08T08:26:04.213Z,14.29
2023-05-08T08:27:05.817Z,14.25
2023-05-08T08:28:07.410Z,14.06
2023-05-08T08:29:09.078Z,13.87
2023-05-08T08:30:17.424Z,13.93
2023-05-08T08:31:20.196Z,13.84
2023-05-08T08:32:23.291Z,13.84
2023-05-08T08:33:24.853Z,13.84
2023-05-08T08:34:26.429Z,13.80
2023-05-08T08:35:30.685Z,13.78
2023-05-08T08:36:32.618Z,13.77
2023-05-08T08:37:34.094Z,13.69
2023-05-08T08:38:35.590Z,13.68
2023-05-08T08:39:37.398Z,13.65
2023-05-08T08:40:42.520Z,13.68
2023-05-08T08:41:44.056Z,13.85
2023-05-08T08:42:46.066Z,13.81
2023-05-08T08:43:47.601Z,13.76
2023-05-08T08:44:49.159Z,13.83
2023-05-08T08:45:50.638Z,13.68
2023-05-08T08:46:52.901Z,13.60
2023-05-08T08:47:56.722Z,13.62
2023-05-08T08:49:02.900Z,13.56
2023-05-08T08:50:07.936Z,13.51
2023-05-08T08:51:14.551Z,13.51
2023-05-08T08:52:54.642Z,13.42
2023-05-08T08:54:06.038Z,13.47
2023-05-08T08:55:12.483Z,13.43
2023-05-08T08:56:16.460Z,13.47
2023-05-08T08:57:20.105Z,13.42
2023-05-08T08:58:25.071Z,13.40
2023-05-08T08:59:28.513Z,13.41
2023-05-08T09:00:32.519Z,13.38
2023-05-08T09:01:36.149Z,13.39
2023-05-08T09:02:37.877Z,13.41
2023-05-08T09:03:39.753Z,13.34
2023-05-08T09:04:41.326Z,13.28
2023-05-08T09:05:43.698Z,13.27
2023-05-08T09:06:46.024Z,13.29
2023-05-08T09:07:48.808Z,13.34
2023-05-08T09:08:51.513Z,13.35
2023-05-08T09:09:53.404Z,13.25
2023-05-08T09:10:56.277Z,13.28
2023-05-08T09:11:57.786Z,13.26
2023-05-08T09:12:59.289Z,13.21
2023-05-08T09:14:00.830Z,13.20
2023-05-08T09:15:02.396Z,13.19
2023-05-08T09:16:04.218Z,13.19
2023-05-08T09:17:05.780Z,13.17
2023-05-08T09:18:07.372Z,13.13
2023-05-08T09:19:09.155Z,13.12
2023-05-08T09:20:12.072Z,13.05
2023-05-08T09:21:14.175Z,13.04
2023-05-08T09:22:16.102Z,13.00
2023-05-08T09:23:19.733Z,12.96
2023-05-08T09:24:22.989Z,12.91
2023-05-08T09:25:24.940Z,12.98
2023-05-08T09:26:41.116Z,13.00
2023-05-08T09:27:42.623Z,13.00
2023-05-08T09:28:44.087Z,12.99
2023-05-08T09:29:59.551Z,13.02
2023-05-08T09:31:02.020Z,13.09
2023-05-08T09:32:03.643Z,13.12
2023-05-08T09:33:05.400Z,13.16
2023-05-08T09:34:09.220Z,13.15
2023-05-08T09:35:12.467Z,13.14
2023-05-08T09:36:27.658Z,13.21
2023-05-08T09:37:29.902Z,13.11
2023-05-08T09:38:36.967Z,13.11
2023-05-08T09:39:41.406Z,13.19
2023-05-08T09:40:42.931Z,13.12
2023-05-08T09:42:00.950Z,13.02
2023-05-08T09:43:15.899Z,13.05
2023-05-08T09:44:17.442Z,13.06
2023-05-08T09:45:32.783Z,13.11
2023-05-08T09:46:35.464Z,13.11
2023-05-08T09:47:40.211Z,13.17
2023-05-08T09:48:42.512Z,13.24
2023-05-08T09:50:08.619Z,13.29
2023-05-08T09:51:10.969Z,13.40
2023-05-08T09:52:16.179Z,13.34
2023-05-08T09:53:17.677Z,13.35
2023-05-08T09:54:19.780Z,13.43
2023-05-08T09:55:21.670Z,13.49
2023-05-08T09:56:33.591Z,13.46
2023-05-08T09:57:38.566Z,13.54
2023-05-08T09:58:44.789Z,13.46
2023-05-08T09:59:46.433Z,13.42
2023-05-08T10:00:48.266Z,13.46
2023-05-08T10:01:51.075Z,13.58
2023-05-08T10:03:00.879Z,13.68
2023-05-08T10:04:04.396Z,13.67
2023-05-08T10:05:26.569Z,13.67
2023-05-08T10:06:28.868Z,13.50
2023-05-08T10:07:34.962Z,13.43
2023-05-08T10:08:36.522Z,13.55
2023-05-08T10:09:49.823Z,13.74
2023-05-08T10:10:53.234Z,13.91
2023-05-08T10:11:55.676Z,13.95
2023-05-08T10:12:58.655Z,14.06
2023-05-08T10:14:01.090Z,14.06
2023-05-08T10:15:02.861Z,14.08
2023-05-08T10:16:05.103Z,14.03
2023-05-08T10:17:09.688Z,14.11
2023-05-08T10:18:14.566Z,14.24
2023-05-08T10:19:18.136Z,14.34
2023-05-08T10:20:21.702Z,14.37
2023-05-08T10:21:28.651Z,14.44
2023-05-08T10:22:36.125Z,14.43
2023-05-08T10:23:38.936Z,14.44
2023-05-08T10:24:41.636Z,14.26
2023-05-08T10:25:48.116Z,14.27
2023-05-08T10:27:06.882Z,14.32
2023-05-08T10:28:27.501Z,14.37
2023-05-08T10:29:35.189Z,14.46
2023-05-08T10:30:41.603Z,14.43
2023-05-08T10:31:45.840Z,14.46
2023-05-08T10:32:51.866Z,14.49
2023-05-08T10:33:56.631Z,14.61
2023-05-08T10:35:03.670Z,14.57
2023-05-08T10:36:05.719Z,14.66
2023-05-08T10:37:11.194Z,14.74
2023-05-08T10:38:15.039Z,14.81
2023-05-08T10:39:17.528Z,14.87
2023-05-08T10:40:21.346Z,14.85
2023-05-08T10:41:25.945Z,14.87
2023-05-08T10:42:27.824Z,14.89
2023-05-08T10:43:31.140Z,14.95
2023-05-08T10:44:32.968Z,14.95
2023-05-08T10:45:35.146Z,15.05
2023-05-08T10:46:47.322Z,15.12
2023-05-08T10:48:18.299Z,15.03
2023-05-08T10:49:39.424Z,15.08
2023-05-08T10:51:11.558Z,15.08
2023-05-08T10:52:31.892Z,15.02
2023-05-08T10:53:42.662Z,15.07
2023-05-08T10:55:04.308Z,15.03
2023-05-08T10:56:06.130Z,15.05
2023-05-08T10:57:12.150Z,14.96
2023-05-08T10:58:36.518Z,14.76
2023-05-08T10:59:38.666Z,14.74
2023-05-08T11:00:52.195Z,14.61
2023-05-08T11:02:05.053Z,14.62
2023-05-08T11:03:16.785Z,14.71
2023-05-08T11:04:24.788Z,14.83
2023-05-08T11:05:28.662Z,14.71
2023-05-08T11:06:42.099Z,14.62
2023-05-08T11:07:57.077Z,14.73
2023-05-08T11:09:00.484Z,14.74
2023-05-08T11:10:14.237Z,14.60
2023-05-08T11:11:35.629Z,14.68
2023-05-08T11:12:38.276Z,14.75
2023-05-08T11:13:47.202Z,14.87
2023-05-08T11:15:00.647Z,15.00
2023-05-08T11:16:03.540Z,14.94
2023-05-08T11:17:06.092Z,15.00
2023-05-08T11:18:13.531Z,15.02
2023-05-08T11:19:19.758Z,15.06
2023-05-08T11:20:24.503Z,15.04
2023-05-08T11:21:26.622Z,15.10
2023-05-08T11:22:47.473Z,15.12
2023-05-08T11:23:57.737Z,15.10
2023-05-08T11:25:10.628Z,15.19
2023-05-08T11:26:16.562Z,15.21
2023-05-08T11:27:18.581Z,15.29
2023-05-08T11:28:20.169Z,15.36
2023-05-08T11:29:22.054Z,15.28
2023-05-08T11:30:25.578Z,15.16
2023-05-08T11:31:51.135Z,15.18
2023-05-08T11:33:16.997Z,15.12
2023-05-08T11:34:45.832Z,15.08
2023-05-08T11:35:54.746Z,15.06
2023-05-08T11:37:02.470Z,15.08
2023-05-08T11:38:43.505Z,15.05
2023-05-08T11:39:45.096Z,15.10
2023-05-08T11:41:00.012Z,15.11
2023-05-08T11:42:27.075Z,15.10
2023-05-08T11:43:36.081Z,15.14
2023-05-08T11:44:37.873Z,15.23
2023-05-08T11:45:42.072Z,15.38
2023-05-08T11:46:51.721Z,15.34
2023-05-08T11:48:00.942Z,15.29
2023-05-08T11:49:02.514Z,15.17
2023-05-08T11:50:04.617Z,15.26
2023-05-08T11:51:06.395Z,15.46
2023-05-08T11:52:07.934Z,15.60
2023-05-08T11:53:09.459Z,15.83
2023-05-08T11:54:13.291Z,15.89
2023-05-08T11:55:15.715Z,16.08
2023-05-08T11:56:17.223Z,16.20
2023-05-08T11:57:18.906Z,16.39
2023-05-08T11:58:20.488Z,16.38
2023-05-08T11:59:22.052Z,16.46
2023-05-08T12:00:23.936Z,16.54
2023-05-08T12:01:25.518Z,16.40
2023-05-08T12:02:40.648Z,16.49
2023-05-08T12:03:42.326Z,16.42
2023-05-08T12:04:46.573Z,16.41
2023-05-08T12:05:50.434Z,16.51
2023-05-08T12:06:57.379Z,16.63
2023-05-08T12:07:59.744Z,16.90
2023-05-08T12:09:02.312Z,17.08
2023-05-08T12:10:04.023Z,17.36
2023-05-08T12:11:05.529Z,17.51
2023-05-08T12:12:07.270Z,17.73
2023-05-08T12:13:19.580Z,17.76
2023-05-08T12:14:23.208Z,17.77
2023-05-08T12:15:24.741Z,18.03
2023-05-08T12:16:26.749Z,18.27
2023-05-08T12:17:28.218Z,18.08
2023-05-08T12:18:30.844Z,18.27
2023-05-08T12:19:32.381Z,18.60
2023-05-08T12:20:34.093Z,18.81
2023-05-08T12:21:36.322Z,18.99
2023-05-08T12:22:39.520Z,19.38
2023-05-08T12:23:41.046Z,19.37
2023-05-08T12:24:43.899Z,19.15
2023-05-08T12:25:45.548Z,19.12
2023-05-08T12:26:47.039Z,18.98
2023-05-08T12:27:48.769Z,18.65
2023-05-08T12:28:57.016Z,18.62
2023-05-08T12:29:58.589Z,18.70
2023-05-08T12:31:01.621Z,18.62
2023-05-08T12:32:03.310Z,18.22
2023-05-08T12:33:06.709Z,18.26
2023-05-08T12:34:10.052Z,18.51
2023-05-08T12:35:13.113Z,18.67
2023-05-08T12:36:14.670Z,18.80
2023-05-08T12:37:29.030Z,18.85
2023-05-08T12:38:30.593Z,18.42
2023-05-08T12:39:37.485Z,18.68
2023-05-08T12:40:43.794Z,18.69
2023-05-08T12:41:49.766Z,18.51
2023-05-08T12:42:51.826Z,18.44
2023-05-08T12:43:53.427Z,18.42
2023-05-08T12:44:54.946Z,18.07
2023-05-08T12:45:56.429Z,18.24
2023-05-08T12:46:58.701Z,17.87
2023-05-08T12:48:02.811Z,18.15
2023-05-08T12:49:07.216Z,17.98
2023-05-08T12:50:10.115Z,18.28
2023-05-08T12:51:12.035Z,18.37
2023-05-08T12:52:13.905Z,18.19
2023-05-08T12:53:17.321Z,18.15
2023-05-08T12:54:18.810Z,18.09
2023-05-08T12:55:25.076Z,18.16
2023-05-08T12:56:26.731Z,18.08
2023-05-08T12:57:28.302Z,17.96
2023-05-08T12:58:34.540Z,17.85
2023-05-08T12:59:36.119Z,18.12
2023-05-08T13:00:45.307Z,18.30
2023-05-08T13:01:51.094Z,18.52
2023-05-08T13:02:56.396Z,18.07
2023-05-08T13:04:02.220Z,18.06
2023-05-08T13:05:05.744Z,18.29
2023-05-08T13:06:18.848Z,18.72
2023-05-08T13:07:20.428Z,18.74
2023-05-08T13:08:30.148Z,19.04
2023-05-08T13:09:31.794Z,19.06
2023-05-08T13:10:46.326Z,18.93
2023-05-08T13:11:47.781Z,18.37
2023-05-08T13:12:49.369Z,18.12
2023-05-08T13:13:50.847Z,17.66
2023-05-08T13:14:52.569Z,17.77
2023-05-08T13:15:55.376Z,17.99
2023-05-08T13:16:57.203Z,17.62
2023-05-08T13:17:59.157Z,17.59
2023-05-08T13:19:00.847Z,17.80
2023-05-08T13:20:05.902Z,17.82
2023-05-08T13:21:07.765Z,18.16
2023-05-08T13:22:09.457Z,18.49
2023-05-08T13:23:11.133Z,18.26
2023-05-08T13:24:13.409Z,18.34
2023-05-08T13:25:15.146Z,18.40
2023-05-08T13:26:16.841Z,18.21
2023-05-08T13:27:18.425Z,18.43
2023-05-08T13:28:20.033Z,18.81
2023-05-08T13:29:22.103Z,18.75
2023-05-08T13:30:23.763Z,18.88
2023-05-08T13:31:25.343Z,19.48
2023-05-08T13:32:26.901Z,19.74
2023-05-08T13:33:28.446Z,20.09
2023-05-08T13:34:30.011Z,20.21
2023-05-08T13:35:32.175Z,20.46
2023-05-08T13:36:33.734Z,20.33
2023-05-08T13:37:35.197Z,19.95
2023-05-08T13:38:36.750Z,19.81
2023-05-08T13:39:38.316Z,19.93
2023-05-08T13:40:39.934Z,19.66
2023-05-08T13:41:41.421Z,19.79
2023-05-08T13:42:43.459Z,19.63
2023-05-08T13:43:45.531Z,19.45
2023-05-08T13:44:47.053Z,19.68
2023-05-08T13:45:48.634Z,19.76
2023-05-08T13:46:50.122Z,19.75
2023-05-08T13:47:51.664Z,19.87
2023-05-08T13:48:53.238Z,19.80
2023-05-08T13:49:54.732Z,20.24
2023-05-08T13:50:56.183Z,20.24
2023-05-08T13:51:57.708Z,19.99
2023-05-08T13:52:59.173Z,20.36
2023-05-08T13:54:01.139Z,20.39
2023-05-08T13:55:03.096Z,19.98
2023-05-08T13:56:05.312Z,20.27
2023-05-08T13:57:08.316Z,20.09
2023-05-08T13:58:09.952Z,19.65